Time;durP1;ratioP1;P1;durP2;ratioP2;P2;SDS_P1;SDS_P2;PMS_P1;PMS_P2;Temp;Humidity;BMP_temperature;BMP_pressure;BME280_temperature;BME280_humidity;BME280_pressure;Samples;Min_cycle;Max_cycle;Signal;HPM_P1;HPM_P2
2021/12/01 00:00:13;;;;;;;;;4.50;4.50;;;;;;;;4998418;28;45277;-70
2021/12/01 00:02:38;;;;;;;;;4.00;4.00;;;;;;;;4997910;28;46372;-71
2021/12/01 00:05:04;;;;;;;;;5.00;5.00;;;;;;;;4980324;28;45533;-71
2021/12/01 00:07:30;;;;;;;;;9.00;7.50;;;;;;;;4998521;28;45393;-70
2021/12/01 00:09:55;;;;;;;;;4.25;4.25;;;;;;;;4996972;28;45635;-74
2021/12/01 00:12:20;;;;;;;;;9.00;9.00;;;;;;;;4997089;28;46326;-71
2021/12/01 00:14:46;;;;;;;;;8.00;8.00;;;;;;;;4997708;28;45373;-69
2021/12/01 00:17:12;;;;;;;;;11.00;7.75;;;;;;;;4997853;28;45236;-70
2021/12/01 00:19:37;;;;;;;;;5.25;5.25;;;;;;;;4998276;28;45370;-70
2021/12/01 00:22:03;;;;;;;;;7.00;5.50;;;;;;;;4996006;28;47057;-72
2021/12/01 00:24:28;;;;;;;;;5.75;5.75;;;;;;;;4997240;28;45341;-70
2021/12/01 00:26:53;;;;;;;;;7.00;5.50;;;;;;;;4997441;28;45366;-71
2021/12/01 00:29:18;;;;;;;;;6.25;6.25;;;;;;;;4996417;28;45445;-70
2021/12/01 00:31:44;;;;;;;;;4.25;4.25;;;;;;;;4996674;28;46506;-70
2021/12/01 00:34:09;;;;;;;;;8.00;8.00;;;;;;;;4997762;28;45376;-69
2021/12/01 00:36:34;;;;;;;;;11.50;11.50;;;;;;;;4998133;28;45357;-70
2021/12/01 00:39:00;;;;;;;;;7.75;6.00;;;;;;;;4997791;28;45521;-70
2021/12/01 00:41:25;;;;;;;;;8.00;8.00;;;;;;;;4997672;28;45638;-71
2021/12/01 00:43:51;;;;;;;;;12.25;9.00;;;;;;;;4997100;28;45468;-69
2021/12/01 00:46:23;;;;;;;;;8.25;5.75;;;;;;;;4997196;28;45424;-70
2021/12/01 00:48:48;;;;;;;;;3.75;3.75;;;;;;;;4994890;28;45528;-68
2021/12/01 00:51:16;;;;;;;;;6.50;6.50;;;;;;;;4997295;28;46380;-69
2021/12/01 00:53:43;;;;;;;;;6.25;5.50;;;;;;;;4997175;28;45390;-70
2021/12/01 00:56:08;;;;;;;;;7.25;7.25;;;;;;;;4997777;28;45385;-68
2021/12/01 00:58:33;;;;;;;;;7.00;7.00;;;;;;;;4997676;28;45283;-69
2021/12/01 01:01:00;;;;;;;;;5.00;5.00;;;;;;;;4979502;28;48813;-70
2021/12/01 01:03:28;;;;;;;;;7.25;7.25;;;;;;;;4997130;28;45152;-69
2021/12/01 01:05:53;;;;;;;;;6.00;6.00;;;;;;;;4996959;28;45233;-69
2021/12/01 01:08:19;;;;;;;;;3.75;3.75;;;;;;;;4997238;28;45350;-69
2021/12/01 01:19:05;;;;;;;;;5.00;4.00;;;;;;;;4935434;28;45413;-71
2021/12/01 01:21:33;;;;;;;;;3.00;3.00;;;;;;;;4919758;28;47601;-70
2021/12/01 01:23:59;;;;;;;;;4.00;4.00;;;;;;;;4935312;28;45832;-70
2021/12/01 01:26:25;;;;;;;;;3.00;3.00;;;;;;;;4935615;28;45388;-72
2021/12/01 01:28:51;;;;;;;;;3.50;3.50;;;;;;;;4920015;28;45416;-69
2021/12/01 01:31:17;;;;;;;;;2.25;2.25;;;;;;;;4935928;28;45447;-69
2021/12/01 01:33:42;;;;;;;;;3.75;3.75;;;;;;;;4935816;28;45581;-70
2021/12/01 01:36:08;;;;;;;;;9.00;6.00;;;;;;;;4936003;28;45506;-69
2021/12/01 01:38:33;;;;;;;;;6.50;5.75;;;;;;;;4936403;28;45549;-70
2021/12/01 01:41:00;;;;;;;;;4.00;4.00;;;;;;;;4936369;28;46303;-69
2021/12/01 01:43:25;;;;;;;;;4.00;3.25;;;;;;;;4936267;28;45552;-68
2021/12/01 01:45:54;;;;;;;;;2.50;2.50;;;;;;;;4936131;28;45560;-70
2021/12/01 01:48:29;;;;;;;;;3.50;3.50;;;;;;;;4935897;28;45414;-71
2021/12/01 01:50:55;;;;;;;;;3.25;3.25;;;;;;;;4935395;28;45696;-69
2021/12/01 01:53:22;;;;;;;;;2.25;2.00;;;;;;;;4963153;28;45457;-70
2021/12/01 01:55:49;;;;;;;;;4.75;3.25;;;;;;;;4977101;28;45438;-69
2021/12/01 01:58:15;;;;;;;;;4.50;4.50;;;;;;;;4959510;28;45257;-69
2021/12/01 02:00:49;;;;;;;;;5.00;5.00;;;;;;;;4979398;28;45276;-75
2021/12/01 02:03:15;;;;;;;;;5.50;5.50;;;;;;;;4980085;28;45490;-69
2021/12/01 02:05:41;;;;;;;;;0.25;0.25;;;;;;;;4962714;28;45383;-75
2021/12/01 02:08:15;;;;;;;;;4.25;4.25;;;;;;;;4980434;28;45519;-69
2021/12/01 02:10:40;;;;;;;;;4.00;4.00;;;;;;;;4980300;28;45532;-70
2021/12/01 02:13:06;;;;;;;;;3.75;3.50;;;;;;;;4979687;28;45455;-70
2021/12/01 02:15:31;;;;;;;;;4.00;4.00;;;;;;;;4980798;28;45265;-69
2021/12/01 02:17:56;;;;;;;;;3.50;3.50;;;;;;;;4980472;28;45339;-69
2021/12/01 02:20:22;;;;;;;;;4.00;3.25;;;;;;;;4980089;28;45924;-69
2021/12/01 02:22:48;;;;;;;;;4.75;4.00;;;;;;;;4980173;28;45537;-70
2021/12/01 02:25:13;;;;;;;;;5.00;4.00;;;;;;;;4979698;28;45398;-69
2021/12/01 02:27:38;;;;;;;;;2.00;2.00;;;;;;;;4980315;28;45419;-69
2021/12/01 02:30:04;;;;;;;;;3.75;3.75;;;;;;;;4979419;28;46291;-70
2021/12/01 02:32:29;;;;;;;;;5.75;5.50;;;;;;;;4978725;28;45354;-69
2021/12/01 02:34:54;;;;;;;;;5.00;5.00;;;;;;;;4962633;28;45403;-70
2021/12/01 02:37:21;;;;;;;;;4.75;4.75;;;;;;;;4980250;28;45465;-71
2021/12/01 02:39:49;;;;;;;;;7.75;7.75;;;;;;;;4979710;28;45397;-69
2021/12/01 02:42:17;;;;;;;;;6.75;6.00;;;;;;;;4979899;28;45407;-70
2021/12/01 02:44:43;;;;;;;;;7.00;7.00;;;;;;;;4979779;28;45273;-69
2021/12/01 02:47:09;;;;;;;;;7.75;6.00;;;;;;;;4980083;28;45376;-70
2021/12/01 02:49:34;;;;;;;;;6.50;6.50;;;;;;;;4992926;28;45508;-71
2021/12/01 02:52:00;;;;;;;;;5.00;5.00;;;;;;;;4999125;28;45353;-69
2021/12/01 02:54:26;;;;;;;;;8.00;6.00;;;;;;;;4999423;28;45400;-69
2021/12/01 02:56:52;;;;;;;;;8.00;6.00;;;;;;;;4999712;28;45445;-69
2021/12/01 02:59:17;;;;;;;;;8.50;6.50;;;;;;;;4998452;28;46520;-69
2021/12/01 03:01:42;;;;;;;;;7.50;7.50;;;;;;;;4999102;28;45405;-71
2021/12/01 03:04:08;;;;;;;;;4.00;4.00;;;;;;;;4998969;28;45406;-69
2021/12/01 03:06:35;;;;;;;;;8.25;7.50;;;;;;;;4999313;28;45402;-69
2021/12/01 03:09:00;;;;;;;;;4.50;4.50;;;;;;;;4999034;28;45421;-68
2021/12/01 03:11:26;;;;;;;;;5.75;4.50;;;;;;;;4997790;28;45469;-70
2021/12/01 03:13:52;;;;;;;;;4.50;4.50;;;;;;;;4998828;28;45294;-69
2021/12/01 03:16:17;;;;;;;;;4.00;4.00;;;;;;;;4999285;28;45306;-69
2021/12/01 03:18:46;;;;;;;;;3.50;3.50;;;;;;;;4998714;28;46483;-70
2021/12/01 03:21:12;;;;;;;;;0.75;0.75;;;;;;;;4997961;28;45435;-69
2021/12/01 03:23:37;;;;;;;;;3.00;2.00;;;;;;;;4998997;28;45461;-69
2021/12/01 03:26:03;;;;;;;;;2.00;2.00;;;;;;;;4997951;28;45646;-69
2021/12/01 03:28:28;;;;;;;;;4.00;3.00;;;;;;;;4998336;28;46427;-69
2021/12/01 03:30:53;;;;;;;;;2.25;2.25;;;;;;;;4997976;28;45454;-69
2021/12/01 03:33:20;;;;;;;;;4.75;3.50;;;;;;;;4997927;28;45492;-70
2021/12/01 03:35:46;;;;;;;;;1.50;1.50;;;;;;;;4998934;28;45574;-69
2021/12/01 03:38:12;;;;;;;;;2.50;2.50;;;;;;;;4980871;28;46448;-69
2021/12/01 03:40:37;;;;;;;;;4.00;4.00;;;;;;;;4998792;28;45370;-69
2021/12/01 03:43:03;;;;;;;;;3.00;3.00;;;;;;;;4998821;28;45447;-71
2021/12/01 03:45:28;;;;;;;;;1.75;1.75;;;;;;;;4998688;28;45349;-70
2021/12/01 03:47:53;;;;;;;;;2.25;2.25;;;;;;;;4997985;28;45679;-70
2021/12/01 03:50:19;;;;;;;;;2.00;2.00;;;;;;;;4998062;28;45324;-70
2021/12/01 03:52:44;;;;;;;;;1.00;1.00;;;;;;;;4998741;28;45416;-69
2021/12/01 03:55:10;;;;;;;;;2.00;2.00;;;;;;;;4999251;28;45271;-70
2021/12/01 03:57:36;;;;;;;;;5.00;4.25;;;;;;;;4998614;28;46671;-70
2021/12/01 04:00:04;;;;;;;;;2.00;2.00;;;;;;;;4998107;28;45487;-70
2021/12/01 04:02:29;;;;;;;;;1.00;1.00;;;;;;;;4998267;28;45362;-70
2021/12/01 04:04:54;;;;;;;;;3.00;2.00;;;;;;;;4998349;28;45433;-70
2021/12/01 04:07:20;;;;;;;;;2.50;2.50;;;;;;;;4996971;28;47403;-70
2021/12/01 04:09:45;;;;;;;;;1.75;1.75;;;;;;;;4997523;28;45497;-69
2021/12/01 04:12:11;;;;;;;;;3.00;3.00;;;;;;;;4997224;28;45374;-73
2021/12/01 04:14:36;;;;;;;;;1.75;1.75;;;;;;;;4998151;28;45647;-70
2021/12/01 04:17:01;;;;;;;;;1.75;1.75;;;;;;;;4998244;28;45288;-69
2021/12/01 04:19:27;;;;;;;;;2.50;2.50;;;;;;;;4997932;28;45779;-69
2021/12/01 04:21:52;;;;;;;;;2.00;2.00;;;;;;;;4997531;28;45290;-70
2021/12/01 04:24:18;;;;;;;;;1.00;1.00;;;;;;;;4998149;28;45193;-72
2021/12/01 04:26:43;;;;;;;;;0.00;0.00;;;;;;;;4997278;28;46734;-70
2021/12/01 04:29:08;;;;;;;;;2.50;2.00;;;;;;;;4997209;28;45418;-69
2021/12/01 04:31:35;;;;;;;;;3.00;3.00;;;;;;;;4997619;28;45336;-70
2021/12/01 04:34:01;;;;;;;;;2.00;2.00;;;;;;;;4997009;28;45451;-70
2021/12/01 04:36:29;;;;;;;;;3.50;1.75;;;;;;;;4997623;28;45490;-68
2021/12/01 04:38:55;;;;;;;;;7.25;3.50;;;;;;;;4997957;28;45479;-69
2021/12/01 04:41:22;;;;;;;;;3.25;2.50;;;;;;;;4997866;28;45382;-69
2021/12/01 04:43:47;;;;;;;;;2.00;2.00;;;;;;;;4998061;28;45392;-69
2021/12/01 04:46:16;;;;;;;;;2.75;2.75;;;;;;;;4997684;28;45734;-69
2021/12/01 04:48:41;;;;;;;;;3.00;3.00;;;;;;;;4997274;28;45554;-70
2021/12/01 04:51:06;;;;;;;;;3.25;3.25;;;;;;;;4997905;28;45506;-69
2021/12/01 04:53:32;;;;;;;;;3.25;3.25;;;;;;;;4998016;28;45421;-69
2021/12/01 04:55:58;;;;;;;;;4.00;4.00;;;;;;;;4997541;28;46108;-69
2021/12/01 04:58:23;;;;;;;;;3.00;3.00;;;;;;;;4997647;28;45466;-69
2021/12/01 05:00:48;;;;;;;;;5.25;2.25;;;;;;;;4997459;28;45382;-69
2021/12/01 05:03:13;;;;;;;;;3.00;3.00;;;;;;;;4997628;28;45426;-69
2021/12/01 05:05:39;;;;;;;;;3.50;2.25;;;;;;;;4997209;28;46224;-68
2021/12/01 05:08:04;;;;;;;;;2.00;2.00;;;;;;;;4997212;28;45473;-68
2021/12/01 05:10:29;;;;;;;;;2.25;2.25;;;;;;;;4997201;28;45397;-69
2021/12/01 05:12:55;;;;;;;;;2.00;2.00;;;;;;;;4997439;28;45418;-71
2021/12/01 05:15:20;;;;;;;;;1.00;1.00;;;;;;;;4996452;28;46188;-70
2021/12/01 05:17:45;;;;;;;;;3.50;2.00;;;;;;;;4996566;28;45489;-68
2021/12/01 05:20:11;;;;;;;;;1.75;1.75;;;;;;;;4997257;28;45355;-69
2021/12/01 05:22:37;;;;;;;;;1.00;1.00;;;;;;;;4997573;28;45363;-68
2021/12/01 05:25:03;;;;;;;;;1.00;1.00;;;;;;;;4996494;28;45341;-68
2021/12/01 05:27:28;;;;;;;;;0.00;0.00;;;;;;;;4996150;28;45454;-71
2021/12/01 05:29:53;;;;;;;;;2.00;2.00;;;;;;;;4996695;28;45489;-69
2021/12/01 05:32:20;;;;;;;;;1.00;1.00;;;;;;;;4996990;28;45287;-70
2021/12/01 05:34:45;;;;;;;;;0.75;0.75;;;;;;;;4995180;28;45513;-70
2021/12/01 05:37:10;;;;;;;;;0.75;0.75;;;;;;;;4995692;28;45717;-71
2021/12/01 05:39:39;;;;;;;;;1.00;1.00;;;;;;;;4997314;28;45278;-71
2021/12/01 05:42:06;;;;;;;;;1.00;1.00;;;;;;;;4996808;28;45466;-69
2021/12/01 05:44:31;;;;;;;;;1.00;1.00;;;;;;;;4996170;28;46207;-70
2021/12/01 05:47:00;;;;;;;;;0.00;0.00;;;;;;;;4996776;28;45366;-71
2021/12/01 05:49:25;;;;;;;;;2.00;0.25;;;;;;;;4996144;28;45536;-72
2021/12/01 05:51:51;;;;;;;;;0.75;0.75;;;;;;;;4978570;28;45367;-74
2021/12/01 05:54:16;;;;;;;;;1.25;0.00;;;;;;;;4996361;28;46413;-76
2021/12/01 05:56:41;;;;;;;;;1.25;0.00;;;;;;;;4996544;28;45403;-73
2021/12/01 05:59:06;;;;;;;;;0.00;0.00;;;;;;;;4996487;28;45608;-72
2021/12/01 06:01:32;;;;;;;;;0.00;0.00;;;;;;;;4996645;28;45743;-70
2021/12/01 06:03:57;;;;;;;;;0.00;0.00;;;;;;;;4996068;28;47355;-73
2021/12/01 06:06:22;;;;;;;;;0.00;0.00;;;;;;;;4996240;28;45472;-68
2021/12/01 06:08:48;;;;;;;;;0.00;0.00;;;;;;;;4978590;28;45705;-70
2021/12/01 06:11:13;;;;;;;;;0.00;0.00;;;;;;;;4996733;28;45386;-68
2021/12/01 06:13:40;;;;;;;;;0.75;0.00;;;;;;;;4996256;28;45465;-69
2021/12/01 06:16:06;;;;;;;;;0.00;0.00;;;;;;;;4995704;28;45485;-69
2021/12/01 06:18:31;;;;;;;;;2.00;0.00;;;;;;;;4996101;28;45431;-71
2021/12/01 06:20:57;;;;;;;;;0.00;0.00;;;;;;;;4995704;28;45312;-70
2021/12/01 06:23:23;;;;;;;;;1.00;1.00;;;;;;;;4996193;28;46594;-72
2021/12/01 06:25:48;;;;;;;;;0.75;0.75;;;;;;;;4996340;28;45256;-75
2021/12/01 06:28:14;;;;;;;;;0.00;0.00;;;;;;;;4994882;28;45371;-73
2021/12/01 06:30:39;;;;;;;;;3.00;2.50;;;;;;;;4996366;28;45426;-74
2021/12/01 06:33:04;;;;;;;;;0.25;0.25;;;;;;;;4995766;28;47149;-75
2021/12/01 06:35:30;;;;;;;;;0.75;0.75;;;;;;;;4995910;28;45365;-76
2021/12/01 06:37:55;;;;;;;;;0.00;0.00;;;;;;;;4995562;28;45482;-76
2021/12/01 06:40:22;;;;;;;;;1.00;1.00;;;;;;;;4995664;28;45585;-72
2021/12/01 06:42:47;;;;;;;;;0.25;0.25;;;;;;;;4995273;28;46450;-78
2021/12/01 06:45:13;;;;;;;;;0.50;0.50;;;;;;;;4995525;28;45580;-76
2021/12/01 06:47:39;;;;;;;;;1.00;1.00;;;;;;;;4998862;28;45339;-78
2021/12/01 06:50:05;;;;;;;;;1.75;1.00;;;;;;;;4998870;28;45365;-76
2021/12/01 06:52:31;;;;;;;;;1.00;1.00;;;;;;;;4998401;28;46155;-75
2021/12/01 06:54:57;;;;;;;;;0.00;0.00;;;;;;;;4998941;28;45395;-75
2021/12/01 06:57:22;;;;;;;;;2.25;2.25;;;;;;;;4998698;28;45265;-74
2021/12/01 06:59:47;;;;;;;;;1.00;1.00;;;;;;;;4999053;28;45344;-74
2021/12/01 07:02:13;;;;;;;;;0.00;0.00;;;;;;;;4998913;28;46524;-75
2021/12/01 07:04:38;;;;;;;;;0.00;0.00;;;;;;;;4999009;28;45395;-74
2021/12/01 07:07:03;;;;;;;;;0.00;0.00;;;;;;;;4999002;28;45338;-76
2021/12/01 07:09:29;;;;;;;;;1.00;1.00;;;;;;;;4999240;28;45430;-75
2021/12/01 07:11:54;;;;;;;;;0.00;0.00;;;;;;;;4999052;28;45448;-76
2021/12/01 07:14:20;;;;;;;;;1.00;1.00;;;;;;;;4999053;28;45648;-77
2021/12/01 07:16:46;;;;;;;;;0.25;0.00;;;;;;;;4998832;28;45323;-77
2021/12/01 07:19:11;;;;;;;;;0.00;0.00;;;;;;;;4998720;28;45382;-80
2021/12/01 07:21:36;;;;;;;;;1.00;1.00;;;;;;;;4998380;28;46121;-75
2021/12/01 07:24:03;;;;;;;;;1.00;1.00;;;;;;;;4998516;28;45456;-75
2021/12/01 07:26:28;;;;;;;;;0.00;0.00;;;;;;;;4998869;28;45282;-76
2021/12/01 07:28:54;;;;;;;;;1.00;1.00;;;;;;;;4998521;28;45353;-74
2021/12/01 07:31:19;;;;;;;;;0.00;0.00;;;;;;;;4998705;28;45451;-75
2021/12/01 07:33:44;;;;;;;;;2.00;2.00;;;;;;;;4998525;28;45425;-75
2021/12/01 07:36:09;;;;;;;;;1.25;0.50;;;;;;;;4998323;28;45925;-74
2021/12/01 07:38:35;;;;;;;;;1.00;0.00;;;;;;;;4998274;28;45402;-75
2021/12/01 07:41:00;;;;;;;;;2.25;1.00;;;;;;;;4997911;28;46368;-75
2021/12/01 07:43:25;;;;;;;;;1.25;1.25;;;;;;;;4979958;28;45390;-75
2021/12/01 07:45:50;;;;;;;;;0.00;0.00;;;;;;;;4998073;28;45418;-75
2021/12/01 07:48:16;;;;;;;;;2.00;2.00;;;;;;;;4998240;28;45477;-74
2021/12/01 07:50:41;;;;;;;;;3.00;3.00;;;;;;;;4980248;28;46269;-79
2021/12/01 07:53:06;;;;;;;;;0.50;0.50;;;;;;;;4998094;28;45458;-75
2021/12/01 07:55:32;;;;;;;;;0.00;0.00;;;;;;;;4997825;28;45236;-74
2021/12/01 07:57:57;;;;;;;;;0.50;0.50;;;;;;;;4979744;28;45284;-76
2021/12/01 08:00:22;;;;;;;;;2.50;2.50;;;;;;;;4997128;28;46530;-75
2021/12/01 08:02:48;;;;;;;;;1.50;1.25;;;;;;;;4997771;28;45224;-75
2021/12/01 08:05:13;;;;;;;;;0.50;0.00;;;;;;;;4997694;28;45260;-76
2021/12/01 08:07:39;;;;;;;;;0.00;0.00;;;;;;;;4980300;28;45435;-74
2021/12/01 08:10:05;;;;;;;;;7.25;5.75;;;;;;;;4997628;28;46286;-74
2021/12/01 08:12:32;;;;;;;;;0.75;0.75;;;;;;;;4997405;28;45244;-75
2021/12/01 08:14:57;;;;;;;;;0.75;0.75;;;;;;;;4979753;28;45320;-74
2021/12/01 08:17:22;;;;;;;;;19.25;13.50;;;;;;;;4997651;28;45421;-75
2021/12/01 08:19:48;;;;;;;;;35.50;28.25;;;;;;;;4997429;28;46542;-76
2021/12/01 08:22:13;;;;;;;;;1.75;1.75;;;;;;;;4995989;28;45411;-76
2021/12/01 08:24:38;;;;;;;;;59.25;48.75;;;;;;;;4997583;28;45391;-74
2021/12/01 08:27:04;;;;;;;;;4.00;4.00;;;;;;;;4997273;28;45363;-76
2021/12/01 08:29:29;;;;;;;;;2.00;2.00;;;;;;;;4997203;28;46249;-76
2021/12/01 08:31:54;;;;;;;;;2.00;2.00;;;;;;;;4979209;28;45519;-76
2021/12/01 08:34:19;;;;;;;;;3.25;1.75;;;;;;;;4978953;28;45360;-74
2021/12/01 08:36:46;;;;;;;;;1.00;1.00;;;;;;;;4997314;28;45364;-76
2021/12/01 08:39:12;;;;;;;;;2.00;1.00;;;;;;;;4996977;28;46512;-76
2021/12/01 08:41:37;;;;;;;;;1.00;1.00;;;;;;;;4997223;28;45219;-73
2021/12/01 08:44:02;;;;;;;;;4.50;3.50;;;;;;;;4997324;28;45321;-79
2021/12/01 08:46:28;;;;;;;;;3.25;3.25;;;;;;;;4997435;28;45405;-75
2021/12/01 08:48:53;;;;;;;;;1.00;1.00;;;;;;;;4996737;28;45490;-72
2021/12/01 08:51:18;;;;;;;;;1.75;1.75;;;;;;;;4996752;28;45216;-78
2021/12/01 08:53:44;;;;;;;;;4.25;4.25;;;;;;;;4997183;28;45211;-75
2021/12/01 08:56:10;;;;;;;;;3.75;3.75;;;;;;;;4996762;28;45295;-74
2021/12/01 08:58:36;;;;;;;;;1.25;1.25;;;;;;;;4997071;28;45938;-74
2021/12/01 09:01:02;;;;;;;;;1.00;1.00;;;;;;;;4996807;28;45276;-73
2021/12/01 09:03:27;;;;;;;;;3.00;3.00;;;;;;;;4997052;28;45340;-76
2021/12/01 09:05:56;;;;;;;;;1.50;1.50;;;;;;;;4996937;28;45413;-77
2021/12/01 09:08:22;;;;;;;;;1.00;1.00;;;;;;;;4996628;28;45377;-77
2021/12/01 09:10:48;;;;;;;;;0.50;0.50;;;;;;;;4995961;28;45244;-77
2021/12/01 09:13:14;;;;;;;;;4.00;1.25;;;;;;;;4997212;28;45447;-78
2021/12/01 09:15:39;;;;;;;;;3.00;1.50;;;;;;;;4997360;28;45377;-76
2021/12/01 09:18:05;;;;;;;;;1.50;0.00;;;;;;;;4996685;28;45304;-76
2021/12/01 09:20:30;;;;;;;;;1.00;1.00;;;;;;;;4996673;28;45377;-75
2021/12/01 09:23:00;;;;;;;;;0.75;0.75;;;;;;;;4996502;28;45195;-74
2021/12/01 09:25:25;;;;;;;;;0.00;0.00;;;;;;;;4996209;28;45399;-74
2021/12/01 09:27:50;;;;;;;;;0.50;0.50;;;;;;;;4995825;28;46203;-75
2021/12/01 09:30:17;;;;;;;;;0.00;0.00;;;;;;;;4996361;28;45398;-76
2021/12/01 09:32:43;;;;;;;;;1.00;1.00;;;;;;;;4996550;28;45360;-77
2021/12/01 09:35:09;;;;;;;;;0.25;0.25;;;;;;;;4996468;28;45244;-81
2021/12/01 09:37:35;;;;;;;;;1.75;1.75;;;;;;;;4978751;28;46658;-75
2021/12/01 09:40:02;;;;;;;;;1.00;1.00;;;;;;;;4996092;28;45474;-75
2021/12/01 09:42:28;;;;;;;;;6.25;5.00;;;;;;;;4996207;28;45492;-74
2021/12/01 09:44:55;;;;;;;;;3.75;1.50;;;;;;;;4996602;28;45414;-74
2021/12/01 09:47:20;;;;;;;;;2.50;1.25;;;;;;;;4995896;28;45537;-74
2021/12/01 09:49:46;;;;;;;;;0.00;0.00;;;;;;;;4995606;28;45366;-74
2021/12/01 09:52:12;;;;;;;;;4.50;2.00;;;;;;;;4996785;28;45370;-76
2021/12/01 09:54:39;;;;;;;;;5.00;5.00;;;;;;;;4996813;28;45380;-77
2021/12/01 09:57:04;;;;;;;;;1.00;1.00;;;;;;;;4995986;28;46324;-77
2021/12/01 09:59:29;;;;;;;;;0.50;0.50;;;;;;;;4994565;28;45256;-78
2021/12/01 10:01:55;;;;;;;;;2.25;1.00;;;;;;;;4996270;28;45401;-82
2021/12/01 10:04:20;;;;;;;;;0.00;0.00;;;;;;;;4996481;28;45408;-78
2021/12/01 10:06:45;;;;;;;;;2.00;2.00;;;;;;;;4995536;28;46337;-80
2021/12/01 10:09:13;;;;;;;;;2.50;2.50;;;;;;;;4994053;28;45401;-81
2021/12/01 10:11:41;;;;;;;;;0.75;0.75;;;;;;;;4996457;28;45402;-82
2021/12/01 10:14:24;;;;;;;;;0.00;0.00;;;;;;;;4996049;28;45476;-78
2021/12/01 10:16:54;;;;;;;;;2.00;2.00;;;;;;;;4995434;28;46460;-77
2021/12/01 10:19:19;;;;;;;;;0.50;0.50;;;;;;;;4995497;28;45465;-78
2021/12/01 10:21:49;;;;;;;;;3.00;3.00;;;;;;;;4980514;28;45400;-77
2021/12/01 10:24:20;;;;;;;;;1.50;1.50;;;;;;;;4999490;28;45366;-75
2021/12/01 10:26:57;;;;;;;;;0.50;0.50;;;;;;;;4999247;28;45534;-79
2021/12/01 10:29:23;;;;;;;;;0.00;0.00;;;;;;;;4999138;28;45375;-76
2021/12/01 10:31:48;;;;;;;;;1.00;1.00;;;;;;;;4998877;28;45386;-77
2021/12/01 10:34:25;;;;;;;;;3.00;1.25;;;;;;;;4999291;28;45417;-78
2021/12/01 10:37:06;;;;;;;;;2.00;0.00;;;;;;;;4980790;28;47042;-81
2021/12/01 10:39:32;;;;;;;;;3.00;3.00;;;;;;;;4997812;28;45200;-79
2021/12/01 10:42:02;;;;;;;;;2.50;2.50;;;;;;;;4996500;28;45467;-77
2021/12/01 10:44:27;;;;;;;;;1.00;1.00;;;;;;;;4998061;28;45330;-78
2021/12/01 10:46:53;;;;;;;;;4.25;4.25;;;;;;;;4997163;28;45288;-78
2021/12/01 10:49:36;;;;;;;;;6.25;3.00;;;;;;;;4996761;28;45504;-79
2021/12/01 10:52:01;;;;;;;;;1.00;0.00;;;;;;;;4996465;28;45503;-78
2021/12/01 10:54:26;;;;;;;;;4.25;4.00;;;;;;;;4997769;28;45505;-75
2021/12/01 10:57:10;;;;;;;;;9.75;7.00;;;;;;;;4996598;28;48169;-77
2021/12/01 10:59:46;;;;;;;;;4.00;4.00;;;;;;;;4997676;28;45386;-78
2021/12/01 11:02:11;;;;;;;;;3.75;3.75;;;;;;;;4997868;28;45446;-76
2021/12/01 11:04:48;;;;;;;;;3.75;3.75;;;;;;;;4997704;28;45451;-79
2021/12/01 11:07:29;;;;;;;;;3.00;3.00;;;;;;;;4997755;28;47464;-83
2021/12/01 11:10:13;;;;;;;;;3.25;3.25;;;;;;;;4997348;28;45390;-81
2021/12/01 11:12:39;;;;;;;;;4.00;4.00;;;;;;;;4997378;28;45607;-87
2021/12/01 11:15:23;;;;;;;;;2.75;1.75;;;;;;;;4997427;28;45433;-79
2021/12/01 11:17:49;;;;;;;;;4.25;3.00;;;;;;;;4979015;28;48118;-85
2021/12/01 11:20:33;;;;;;;;;2.00;2.00;;;;;;;;4999868;28;45338;-82
2021/12/01 11:23:09;;;;;;;;;4.75;3.50;;;;;;;;4979983;28;45397;-80
2021/12/01 11:25:36;;;;;;;;;3.75;2.75;;;;;;;;4979888;28;45441;-80
2021/12/01 11:28:02;;;;;;;;;3.50;3.50;;;;;;;;4979588;28;47648;-81
2021/12/01 11:30:27;;;;;;;;;69.75;56.50;;;;;;;;4977232;28;45392;-77
2021/12/01 11:32:53;;;;;;;;;59.50;49.50;;;;;;;;4995903;28;46094;-78
2021/12/01 11:35:18;;;;;;;;;4.50;4.25;;;;;;;;4995367;28;45312;-78
2021/12/01 11:37:44;;;;;;;;;4.50;3.50;;;;;;;;4996612;28;46446;-74
2021/12/01 11:40:09;;;;;;;;;5.00;3.00;;;;;;;;4998456;28;45393;-75
2021/12/01 11:42:35;;;;;;;;;3.25;3.00;;;;;;;;4997722;28;45360;-74
2021/12/01 11:45:01;;;;;;;;;4.25;3.25;;;;;;;;4997246;28;45441;-74
2021/12/01 11:47:27;;;;;;;;;5.25;5.25;;;;;;;;4996872;28;45597;-75
2021/12/01 11:49:55;;;;;;;;;3.75;3.75;;;;;;;;4997458;28;45381;-75
2021/12/01 11:52:25;;;;;;;;;4.25;4.25;;;;;;;;4995672;28;45459;-76
2021/12/01 11:54:51;;;;;;;;;5.00;4.00;;;;;;;;4996861;28;45286;-79
2021/12/01 11:57:17;;;;;;;;;4.00;3.00;;;;;;;;4978711;28;46190;-82
2021/12/01 11:59:49;;;;;;;;;3.00;3.00;;;;;;;;4994765;28;45768;-79
2021/12/01 12:02:17;;;;;;;;;5.25;5.00;;;;;;;;4998419;28;45407;-77
2021/12/01 12:04:46;;;;;;;;;1.75;1.50;;;;;;;;4997294;28;45601;-78
2021/12/01 12:07:16;;;;;;;;;5.50;5.00;;;;;;;;5011286;28;46476;-89
2021/12/01 12:09:41;;;;;;;;;2.50;2.50;;;;;;;;4998408;28;45342;-75
2021/12/01 12:12:10;;;;;;;;;9.75;5.75;;;;;;;;5015837;28;45540;-74
2021/12/01 12:14:37;;;;;;;;;4.25;2.75;;;;;;;;4995275;28;45454;-73
2021/12/01 12:17:07;;;;;;;;;3.25;3.25;;;;;;;;4995692;28;45483;-78
2021/12/01 12:19:51;;;;;;;;;4.50;3.00;;;;;;;;5000154;28;45472;-74
2021/12/01 12:22:18;;;;;;;;;3.75;3.00;;;;;;;;4992357;28;45400;-74
2021/12/01 12:24:55;;;;;;;;;7.00;5.00;;;;;;;;4994619;28;45464;-77
2021/12/01 12:27:30;;;;;;;;;3.00;3.00;;;;;;;;4977170;28;47245;-77
2021/12/01 12:29:57;;;;;;;;;4.25;4.25;;;;;;;;4978796;28;45474;-73
2021/12/01 12:32:24;;;;;;;;;5.50;5.50;;;;;;;;4996298;28;45496;-80
2021/12/01 12:34:50;;;;;;;;;9.75;5.25;;;;;;;;4978115;28;45653;-77
2021/12/01 12:37:26;;;;;;;;;6.50;5.00;;;;;;;;4977837;28;47885;-75
2021/12/01 12:39:53;;;;;;;;;3.50;3.50;;;;;;;;4995396;28;45303;-80
2021/12/01 12:42:18;;;;;;;;;8.00;5.00;;;;;;;;4995997;28;45417;-77
2021/12/01 12:45:03;;;;;;;;;5.50;3.00;;;;;;;;4996603;28;45443;-74
2021/12/01 12:47:44;;;;;;;;;3.00;3.00;;;;;;;;4995689;28;46495;-74
2021/12/01 12:50:09;;;;;;;;;4.50;4.50;;;;;;;;4994705;28;45454;-73
2021/12/01 12:52:37;;;;;;;;;3.00;3.00;;;;;;;;4994308;28;45330;-74
2021/12/01 12:55:08;;;;;;;;;1.00;1.00;;;;;;;;4976297;28;45554;-78
2021/12/01 12:57:54;;;;;;;;;7.50;5.00;;;;;;;;4993317;28;45788;-81
2021/12/01 13:00:44;;;;;;;;;8.75;7.00;;;;;;;;4993576;28;45413;-78
2021/12/01 13:03:22;;;;;;;;;5.50;4.00;;;;;;;;4993072;28;45664;-75
2021/12/01 13:05:49;;;;;;;;;7.75;7.75;;;;;;;;4994201;28;45508;-76
2021/12/01 13:08:31;;;;;;;;;10.00;7.00;;;;;;;;4993907;28;46361;-77
2021/12/01 13:11:08;;;;;;;;;4.25;4.25;;;;;;;;4994086;28;45535;-76
2021/12/01 13:13:34;;;;;;;;;4.00;3.00;;;;;;;;4995995;28;45390;-73
2021/12/01 13:16:00;;;;;;;;;34.25;29.00;;;;;;;;4995433;28;45358;-73
2021/12/01 13:18:27;;;;;;;;;22.50;18.00;;;;;;;;4994931;28;45509;-71
2021/12/01 13:20:57;;;;;;;;;9.50;9.00;;;;;;;;4994157;28;45402;-74
2021/12/01 13:23:40;;;;;;;;;12.50;12.50;;;;;;;;4995070;28;45442;-73
2021/12/01 13:26:13;;;;;;;;;5.00;4.00;;;;;;;;4977594;28;45478;-74
2021/12/01 13:28:38;;;;;;;;;3.00;3.00;;;;;;;;4995205;28;46370;-73
2021/12/01 13:31:06;;;;;;;;;3.50;3.00;;;;;;;;4995170;28;45523;-83
2021/12/01 13:33:32;;;;;;;;;4.75;4.75;;;;;;;;4994486;28;45452;-75
2021/12/01 13:35:57;;;;;;;;;3.00;3.00;;;;;;;;4995427;28;45481;-73
2021/12/01 13:38:33;;;;;;;;;2.00;2.00;;;;;;;;4993844;28;46100;-74
2021/12/01 13:41:25;;;;;;;;;2.25;2.25;;;;;;;;4994572;28;45429;-79
2021/12/01 13:44:00;;;;;;;;;3.75;3.00;;;;;;;;4976880;28;45403;-81
2021/12/01 13:46:26;;;;;;;;;2.00;2.00;;;;;;;;4998211;28;45662;-81
2021/12/01 13:48:52;;;;;;;;;1.50;1.50;;;;;;;;4988570;28;45626;-79
2021/12/01 13:51:18;;;;;;;;;2.50;2.00;;;;;;;;4976445;28;45395;-74
2021/12/01 13:53:43;;;;;;;;;0.25;0.00;;;;;;;;4974789;28;45488;-83
2021/12/01 13:56:16;;;;;;;;;1.00;1.00;;;;;;;;4979857;28;45354;-78
2021/12/01 13:58:43;;;;;;;;;1.00;1.00;;;;;;;;4982281;28;46417;-78
2021/12/01 14:01:13;;;;;;;;;1.00;1.00;;;;;;;;4966060;28;45414;-76
2021/12/01 14:03:40;;;;;;;;;1.00;1.00;;;;;;;;4964457;28;45644;-78
2021/12/01 14:06:07;;;;;;;;;2.25;1.25;;;;;;;;4964129;28;45541;-76
2021/12/01 14:08:33;;;;;;;;;3.25;3.00;;;;;;;;4981054;28;46671;-78
2021/12/01 14:11:02;;;;;;;;;4.00;3.75;;;;;;;;4979185;28;45520;-77
2021/12/01 14:13:28;;;;;;;;;7.00;4.00;;;;;;;;4979802;28;45405;-78
2021/12/01 14:15:54;;;;;;;;;1.00;1.00;;;;;;;;4980095;28;45897;-78
2021/12/01 14:18:20;;;;;;;;;2.75;2.75;;;;;;;;4981029;28;46582;-75
2021/12/01 14:20:45;;;;;;;;;3.75;3.75;;;;;;;;4980802;28;45369;-77
2021/12/01 14:23:15;;;;;;;;;3.00;3.00;;;;;;;;4963597;28;45668;-79
2021/12/01 14:25:47;;;;;;;;;9.00;9.00;;;;;;;;4964081;28;45410;-80
2021/12/01 14:28:13;;;;;;;;;5.00;5.00;;;;;;;;4947116;28;46673;-76
2021/12/01 14:30:43;;;;;;;;;3.50;3.50;;;;;;;;4980997;28;45492;-80
2021/12/01 14:33:10;;;;;;;;;5.00;4.00;;;;;;;;4963974;28;45464;-81
2021/12/01 14:35:35;;;;;;;;;3.50;3.50;;;;;;;;4982051;28;45603;-81
2021/12/01 14:38:04;;;;;;;;;3.50;3.50;;;;;;;;4963610;28;45721;-76
2021/12/01 14:40:29;;;;;;;;;4.00;4.00;;;;;;;;4981478;28;45432;-78
2021/12/01 14:42:56;;;;;;;;;4.75;3.00;;;;;;;;4981564;28;45474;-83
2021/12/01 14:45:23;;;;;;;;;7.50;6.25;;;;;;;;4981530;28;45457;-78
2021/12/01 14:48:24;;;;;;;;;3.50;3.00;;;;;;;;4980772;28;45691;-81
2021/12/01 14:50:54;;;;;;;;;4.00;2.00;;;;;;;;4978703;28;45542;-78